Time;durP1;ratioP1;P1;durP2;ratioP2;P2;SDS_P1;SDS_P2;PMS_P1;PMS_P2;Temp;Humidity;BMP_temperature;BMP_pressure;BME280_temperature;BME280_humidity;BME280_pressure;Samples;Min_cycle;Max_cycle;Signal;HPM_P1;HPM_P2
2022/02/14 00:00:19;;;;;;;;;159.75;141.00;10.50;44.60;;;;;;4938095;29;8811;-70
2022/02/14 00:02:47;;;;;;;;;142.00;130.25;10.40;44.60;;;;;;4938127;29;8989;-70
2022/02/14 00:05:13;;;;;;;;;155.25;140.75;10.40;44.50;;;;;;4938120;29;8829;-69
2022/02/14 00:07:40;;;;;;;;;172.50;148.75;10.40;44.60;;;;;;4938226;29;9449;-68
2022/02/14 00:10:06;;;;;;;;;139.50;127.50;10.40;44.60;;;;;;4937986;29;8870;-71
2022/02/14 00:12:34;;;;;;;;;168.00;158.50;10.30;44.60;;;;;;4938346;29;8935;-70
2022/02/14 00:15:02;;;;;;;;;183.50;168.25;10.30;44.70;;;;;;4937883;29;8810;-70
2022/02/14 00:17:28;;;;;;;;;186.75;168.00;10.30;44.70;;;;;;4937944;29;8817;-71
2022/02/14 00:19:54;;;;;;;;;191.25;170.25;10.30;44.70;;;;;;4937706;29;8807;-70
2022/02/14 00:22:23;;;;;;;;;167.50;158.25;10.30;44.50;;;;;;4937958;29;8807;-69
2022/02/14 00:24:53;;;;;;;;;164.25;148.25;10.40;44.50;;;;;;4937811;29;9288;-70
2022/02/14 00:27:20;;;;;;;;;140.50;123.00;10.40;44.60;;;;;;4937720;29;8771;-72
2022/02/14 00:29:46;;;;;;;;;182.00;161.50;10.50;44.50;;;;;;4937675;29;8891;-71
2022/02/14 00:32:12;;;;;;;;;166.00;158.25;10.50;44.50;;;;;;4937650;29;9520;-70
2022/02/14 00:34:38;;;;;;;;;174.75;160.75;10.50;44.30;;;;;;4937796;29;8787;-70
2022/02/14 00:37:05;;;;;;;;;216.50;196.00;10.50;44.30;;;;;;4937539;29;8826;-70
2022/02/14 00:39:31;;;;;;;;;211.50;190.75;10.40;44.10;;;;;;4937460;29;8802;-70
2022/02/14 00:41:57;;;;;;;;;187.00;176.00;10.40;44.20;;;;;;4937721;29;8799;-70
2022/02/14 00:44:23;;;;;;;;;193.75;175.00;10.30;44.40;;;;;;4937427;29;8899;-70
2022/02/14 00:46:49;;;;;;;;;186.25;173.50;10.30;44.70;;;;;;4937331;29;8775;-69
2022/02/14 00:49:15;;;;;;;;;179.00;156.75;10.20;44.80;;;;;;4937325;29;8783;-72
2022/02/14 00:51:40;;;;;;;;;199.25;176.00;10.30;45.00;;;;;;4937518;29;8921;-70
2022/02/14 00:54:06;;;;;;;;;186.00;163.50;10.30;44.90;;;;;;4937218;29;8886;-68
2022/02/14 00:56:32;;;;;;;;;149.00;128.75;10.20;44.80;;;;;;4937210;29;8790;-73
2022/02/14 00:58:58;;;;;;;;;179.25;157.00;10.30;44.80;;;;;;4937243;29;8913;-71
2022/02/14 01:01:24;;;;;;;;;148.75;138.25;10.30;44.80;;;;;;4937184;29;8827;-70
2022/02/14 01:03:50;;;;;;;;;124.50;108.00;10.30;44.80;;;;;;4937137;29;8795;-72
2022/02/14 01:06:15;;;;;;;;;102.25;92.00;10.20;44.80;;;;;;4937443;29;8803;-69
2022/02/14 01:08:41;;;;;;;;;108.00;93.75;10.10;45.10;;;;;;4936814;29;8811;-69
2022/02/14 01:11:07;;;;;;;;;104.75;92.50;9.90;45.50;;;;;;4936093;29;8811;-74
2022/02/14 01:13:33;;;;;;;;;102.25;89.50;9.90;45.80;;;;;;4937015;29;8929;-71
2022/02/14 01:15:59;;;;;;;;;90.25;65.00;9.90;45.70;;;;;;4937270;29;8862;-71
2022/02/14 01:18:25;;;;;;;;;103.50;87.50;9.90;45.60;;;;;;4937031;29;8795;-72
2022/02/14 01:20:50;;;;;;;;;101.00;87.50;9.80;45.70;;;;;;4936941;29;8826;-71
2022/02/14 01:23:16;;;;;;;;;101.25;87.25;9.70;45.80;;;;;;4936965;29;8794;-70
2022/02/14 01:25:42;;;;;;;;;95.25;86.25;9.80;45.90;;;;;;4936954;29;8779;-69
2022/02/14 01:28:08;;;;;;;;;101.50;85.25;9.80;45.70;;;;;;4937128;29;8798;-71
2022/02/14 01:30:34;;;;;;;;;101.25;86.00;9.70;45.90;;;;;;4936879;29;8783;-72
2022/02/14 01:33:00;;;;;;;;;91.50;69.25;9.60;46.00;;;;;;4934689;29;8862;-70
2022/02/14 01:35:28;;;;;;;;;95.25;77.50;9.50;46.40;;;;;;4936854;29;8802;-69
2022/02/14 01:37:55;;;;;;;;;86.50;69.00;9.60;46.40;;;;;;4937140;29;8802;-70
2022/02/14 01:40:21;;;;;;;;;113.75;104.00;9.50;46.60;;;;;;4937099;29;8815;-70
2022/02/14 01:42:47;;;;;;;;;151.00;134.00;9.50;46.80;;;;;;4936828;29;8802;-70
2022/02/14 01:45:13;;;;;;;;;168.25;156.00;9.30;47.00;;;;;;4937087;29;8793;-69
2022/02/14 01:47:40;;;;;;;;;122.00;113.50;9.40;47.10;;;;;;4936842;29;8771;-70
2022/02/14 01:50:08;;;;;;;;;113.50;101.75;9.20;47.40;;;;;;4936743;29;8791;-71
2022/02/14 01:52:35;;;;;;;;;103.25;94.75;9.10;47.40;;;;;;4936958;29;8778;-70
2022/02/14 01:55:03;;;;;;;;;94.75;75.50;9.20;47.40;;;;;;4936695;29;8802;-70
2022/02/14 01:57:29;;;;;;;;;97.00;79.00;9.20;47.50;;;;;;4936821;29;8801;-69
2022/02/14 01:59:57;;;;;;;;;101.75;88.25;9.30;47.20;;;;;;4936770;29;8830;-70
2022/02/14 02:02:23;;;;;;;;;105.50;98.25;9.20;47.40;;;;;;4936622;29;8877;-69
2022/02/14 02:04:49;;;;;;;;;112.00;97.50;9.30;47.50;;;;;;4936630;29;8783;-70
2022/02/14 02:07:15;;;;;;;;;100.50;89.75;9.20;47.30;;;;;;4936552;29;8806;-71
2022/02/14 02:09:45;;;;;;;;;101.00;89.00;9.10;47.30;;;;;;4936565;29;8791;-69
2022/02/14 02:12:25;;;;;;;;;107.50;89.75;9.10;47.30;;;;;;4936934;29;8802;-70
2022/02/14 02:15:02;;;;;;;;;95.00;78.25;9.10;47.40;;;;;;4936828;29;9453;-70
2022/02/14 02:17:38;;;;;;;;;100.00;84.25;9.00;47.50;;;;;;4936571;29;8747;-70
2022/02/14 02:20:07;;;;;;;;;101.25;91.25;8.90;47.80;;;;;;4937509;29;8834;-71
2022/02/14 02:22:33;;;;;;;;;96.75;80.50;8.80;48.10;;;;;;4939901;29;8803;-72
2022/02/14 02:24:59;;;;;;;;;102.50;92.00;8.90;48.10;;;;;;4940152;29;8786;-70
2022/02/14 02:27:27;;;;;;;;;101.25;87.75;8.80;47.70;;;;;;4939890;29;8889;-70
2022/02/14 02:29:55;;;;;;;;;105.25;86.50;8.80;47.70;;;;;;4939888;29;8782;-70
2022/02/14 02:32:21;;;;;;;;;100.00;84.25;8.90;48.00;;;;;;4939621;29;8845;-71
2022/02/14 02:34:47;;;;;;;;;99.50;82.75;8.90;47.70;;;;;;4939759;29;8779;-68
2022/02/14 02:37:15;;;;;;;;;67.75;50.50;8.90;47.70;;;;;;4939933;29;8873;-71
2022/02/14 02:39:41;;;;;;;;;101.50;85.25;8.80;47.80;;;;;;4939570;29;8853;-71
2022/02/14 02:42:09;;;;;;;;;105.50;89.75;8.80;47.90;;;;;;4939963;29;8811;-69
2022/02/14 02:44:36;;;;;;;;;112.50;98.25;8.90;47.90;;;;;;4939692;29;8779;-70
2022/02/14 02:47:04;;;;;;;;;96.25;78.75;8.90;47.50;;;;;;4939542;29;8779;-71
2022/02/14 02:49:31;;;;;;;;;100.00;85.50;8.90;47.50;;;;;;4939766;29;8923;-70
2022/02/14 02:51:57;;;;;;;;;94.50;77.75;8.80;47.60;;;;;;4939454;29;8782;-68
2022/02/14 02:54:25;;;;;;;;;93.50;79.25;8.70;47.90;;;;;;4939728;29;8897;-71
2022/02/14 02:56:52;;;;;;;;;105.25;90.00;8.60;48.00;;;;;;4939405;29;8867;-74
2022/02/14 02:59:18;;;;;;;;;96.75;79.75;8.60;47.90;;;;;;4939522;29;8869;-71
2022/02/14 03:01:44;;;;;;;;;92.00;70.00;8.50;48.50;;;;;;4939387;29;8783;-73
2022/02/14 03:04:12;;;;;;;;;96.00;80.50;8.50;48.40;;;;;;4939506;29;8927;-70
2022/02/14 03:06:39;;;;;;;;;107.00;88.75;8.50;48.90;;;;;;4939241;29;8794;-71
2022/02/14 03:09:05;;;;;;;;;107.50;97.00;8.30;49.30;;;;;;4939434;29;8774;-70
2022/02/14 03:11:32;;;;;;;;;119.00;111.25;8.00;49.90;;;;;;4939252;29;8817;-74
2022/02/14 03:13:58;;;;;;;;;143.75;131.50;8.10;49.70;;;;;;4939056;29;8922;-71
2022/02/14 03:16:25;;;;;;;;;145.75;134.25;8.20;49.60;;;;;;4939144;29;8775;-69
2022/02/14 03:18:51;;;;;;;;;139.75;122.50;8.20;49.30;;;;;;4939020;29;9429;-70
2022/02/14 03:21:21;;;;;;;;;137.00;119.50;8.20;49.10;;;;;;4939106;29;8819;-72
2022/02/14 03:23:51;;;;;;;;;157.75;144.00;8.10;49.60;;;;;;4938869;29;8799;-69
2022/02/14 03:26:19;;;;;;;;;138.00;123.25;8.00;50.00;;;;;;4938875;29;8865;-72
2022/02/14 03:28:47;;;;;;;;;126.00;115.25;8.10;49.80;;;;;;4939072;29;8813;-74
2022/02/14 03:31:13;;;;;;;;;130.50;119.00;8.00;49.90;;;;;;4938685;29;8881;-72
2022/02/14 03:33:40;;;;;;;;;132.50;121.75;8.00;49.90;;;;;;4938363;29;8815;-71
2022/02/14 03:36:06;;;;;;;;;134.75;120.00;7.90;50.10;;;;;;4938964;29;8797;-72
2022/02/14 03:38:32;;;;;;;;;135.50;122.25;8.10;49.90;;;;;;4938567;29;8771;-72
2022/02/14 03:40:57;;;;;;;;;141.00;127.75;8.10;49.70;;;;;;4938605;29;8838;-71
2022/02/14 03:43:23;;;;;;;;;136.50;124.25;8.10;49.80;;;;;;4938514;29;8877;-70
2022/02/14 03:45:49;;;;;;;;;138.50;126.75;8.10;49.60;;;;;;4938659;29;8782;-70
2022/02/14 03:48:15;;;;;;;;;178.00;155.75;8.10;49.30;;;;;;4938366;29;8783;-70
2022/02/14 03:50:41;;;;;;;;;159.75;134.50;8.20;49.10;;;;;;4938276;29;8812;-71
2022/02/14 03:53:06;;;;;;;;;151.00;129.50;8.20;49.00;;;;;;4938274;29;8763;-71
2022/02/14 03:55:33;;;;;;;;;135.75;125.75;8.30;48.80;;;;;;4938261;29;8821;-72
2022/02/14 03:57:59;;;;;;;;;154.25;131.50;8.30;48.80;;;;;;4938521;29;8830;-73
2022/02/14 04:00:25;;;;;;;;;132.50;118.50;8.30;49.70;;;;;;4938136;29;8842;-71
2022/02/14 04:02:52;;;;;;;;;129.75;111.50;8.20;48.90;;;;;;4937100;29;8890;-71
2022/02/14 04:05:19;;;;;;;;;111.75;99.50;8.10;49.00;;;;;;4938362;29;8771;-71
2022/02/14 04:07:45;;;;;;;;;109.00;100.25;8.10;49.20;;;;;;4938284;29;8783;-72
2022/02/14 04:10:13;;;;;;;;;119.00;104.50;8.10;49.40;;;;;;4937965;29;8803;-70
2022/02/14 04:12:39;;;;;;;;;127.50;114.00;7.90;49.70;;;;;;4937825;29;8810;-70
2022/02/14 04:15:06;;;;;;;;;121.50;104.25;7.90;50.00;;;;;;4938190;29;9528;-71
2022/02/14 04:17:32;;;;;;;;;112.25;107.75;7.90;49.80;;;;;;4938115;29;8779;-71
2022/02/14 04:19:58;;;;;;;;;110.25;101.50;8.00;49.70;;;;;;4937947;29;8837;-71
2022/02/14 04:22:24;;;;;;;;;111.25;97.25;8.00;49.70;;;;;;4938061;29;8823;-69
2022/02/14 04:24:50;;;;;;;;;108.75;96.00;8.00;49.70;;;;;;4937906;29;8794;-70
2022/02/14 04:27:16;;;;;;;;;104.00;94.75;8.00;49.70;;;;;;4937791;29;9390;-70
2022/02/14 04:29:42;;;;;;;;;138.50;125.25;8.10;49.70;;;;;;4937623;29;8837;-69
2022/02/14 04:32:08;;;;;;;;;134.75;115.75;8.20;49.20;;;;;;4937636;29;8810;-71
2022/02/14 04:34:34;;;;;;;;;130.50;118.75;8.10;48.90;;;;;;4937666;29;8809;-70
2022/02/14 04:37:01;;;;;;;;;118.50;107.00;8.10;49.10;;;;;;4937561;29;8915;-70
2022/02/14 04:39:27;;;;;;;;;114.75;98.25;8.10;49.20;;;;;;4937669;29;8806;-70
2022/02/14 04:41:53;;;;;;;;;120.00;108.50;8.10;49.30;;;;;;4937630;29;8830;-71
2022/02/14 04:44:19;;;;;;;;;198.25;180.00;8.10;49.30;;;;;;4936918;29;8789;-69
2022/02/14 04:46:45;;;;;;;;;176.50;148.75;8.10;49.10;;;;;;4937669;29;8929;-69
2022/02/14 04:49:12;;;;;;;;;147.50;130.25;8.20;49.20;;;;;;4937349;29;9492;-72
2022/02/14 04:51:38;;;;;;;;;137.50;120.25;8.20;48.90;;;;;;4937583;29;9570;-68
2022/02/14 04:54:04;;;;;;;;;153.50;133.75;8.30;48.90;;;;;;4937574;29;8783;-69
2022/02/14 04:56:30;;;;;;;;;117.50;102.50;8.30;48.70;;;;;;4937560;29;8799;-68
2022/02/14 04:58:57;;;;;;;;;133.00;122.00;8.40;48.30;;;;;;4936326;29;8775;-70
2022/02/14 05:01:24;;;;;;;;;147.50;130.75;8.30;48.20;;;;;;4937100;29;8828;-71
2022/02/14 05:03:50;;;;;;;;;157.75;138.25;8.30;48.50;;;;;;4937227;29;8817;-70
2022/02/14 05:06:16;;;;;;;;;139.75;117.00;8.20;48.40;;;;;;4937199;29;8857;-70
2022/02/14 05:08:43;;;;;;;;;122.75;107.50;8.10;48.60;;;;;;4937385;29;8795;-69
2022/02/14 05:11:09;;;;;;;;;120.75;108.00;8.10;48.80;;;;;;4937279;29;8831;-69
2022/02/14 05:13:39;;;;;;;;;108.75;99.50;8.00;49.20;;;;;;4937356;29;9413;-70
2022/02/14 05:16:08;;;;;;;;;107.75;86.50;8.10;49.30;;;;;;4937033;29;8790;-71
2022/02/14 05:18:35;;;;;;;;;117.00;107.50;8.30;49.20;;;;;;4937256;29;8831;-69
2022/02/14 05:21:01;;;;;;;;;130.00;118.75;8.40;48.80;;;;;;4936874;29;8909;-69
2022/02/14 05:23:27;;;;;;;;;125.75;106.50;8.40;48.60;;;;;;4937190;29;8800;-69
2022/02/14 05:25:53;;;;;;;;;141.25;125.50;8.30;48.60;;;;;;4937169;29;8775;-69
2022/02/14 05:28:19;;;;;;;;;148.50;133.50;8.00;49.10;;;;;;4937095;29;8886;-70
2022/02/14 05:30:45;;;;;;;;;152.25;140.00;8.00;49.50;;;;;;4935893;29;9430;-70
2022/02/14 05:33:10;;;;;;;;;128.50;117.50;7.90;49.70;;;;;;4936716;29;8830;-69
2022/02/14 05:35:36;;;;;;;;;141.50;127.00;7.90;50.10;;;;;;4936817;29;8799;-70
2022/02/14 05:38:02;;;;;;;;;167.75;153.25;8.00;49.60;;;;;;4936807;29;8820;-70
2022/02/14 05:40:28;;;;;;;;;149.50;132.75;8.00;49.60;;;;;;4936596;29;8861;-71
2022/02/14 05:42:54;;;;;;;;;160.50;146.75;7.70;50.40;;;;;;4936769;29;8774;-70
2022/02/14 05:45:20;;;;;;;;;146.75;130.25;7.30;51.50;;;;;;4936879;29;8807;-70
2022/02/14 05:47:46;;;;;;;;;143.25;131.50;7.60;50.90;;;;;;4937001;29;8855;-69
2022/02/14 05:50:12;;;;;;;;;150.00;131.75;7.70;50.40;;;;;;4936713;29;9430;-70
2022/02/14 05:52:39;;;;;;;;;140.75;126.75;7.90;50.30;;;;;;4937069;29;8813;-70
2022/02/14 05:55:06;;;;;;;;;127.75;117.00;8.00;49.80;;;;;;4938130;29;8779;-70
2022/02/14 05:57:32;;;;;;;;;148.75;139.75;8.20;49.30;;;;;;4940729;29;8767;-69
2022/02/14 05:59:57;;;;;;;;;165.25;151.75;8.20;49.60;;;;;;4940265;29;8803;-69
2022/02/14 06:02:23;;;;;;;;;149.50;133.25;7.90;50.20;;;;;;4940190;29;8795;-69
2022/02/14 06:04:49;;;;;;;;;145.00;131.25;8.00;50.30;;;;;;4940243;29;8791;-69
2022/02/14 06:07:15;;;;;;;;;151.75;142.50;7.90;50.50;;;;;;4940483;29;8794;-70
2022/02/14 06:09:40;;;;;;;;;162.75;149.50;7.60;51.10;;;;;;4940168;29;8783;-71
2022/02/14 06:12:07;;;;;;;;;151.25;133.25;7.80;51.20;;;;;;4940028;29;8803;-70
2022/02/14 06:14:33;;;;;;;;;179.75;164.25;7.40;52.40;;;;;;4940143;29;8791;-69
2022/02/14 06:16:59;;;;;;;;;185.75;170.25;7.60;52.30;;;;;;4940287;29;8787;-70
2022/02/14 06:19:25;;;;;;;;;158.75;143.00;7.80;51.80;;;;;;4940150;29;9581;-71
2022/02/14 06:21:50;;;;;;;;;167.75;147.00;7.90;51.50;;;;;;4940009;29;8783;-71
2022/02/14 06:24:17;;;;;;;;;183.50;168.75;7.90;51.80;;;;;;4939918;29;8803;-69
2022/02/14 06:26:44;;;;;;;;;207.75;184.25;8.10;51.10;;;;;;4940141;29;8875;-70
2022/02/14 06:29:10;;;;;;;;;183.50;164.25;8.20;50.60;;;;;;4939875;29;9398;-70
2022/02/14 06:31:37;;;;;;;;;180.25;168.25;8.40;51.50;;;;;;4939952;29;8797;-69
2022/02/14 06:34:03;;;;;;;;;184.75;165.50;8.50;50.00;;;;;;4939462;29;8923;-70
2022/02/14 06:36:30;;;;;;;;;207.25;188.75;8.50;49.80;;;;;;4939991;29;8837;-69
2022/02/14 06:38:57;;;;;;;;;185.50;165.25;8.60;50.00;;;;;;4939650;29;9445;-70
2022/02/14 06:41:24;;;;;;;;;162.50;155.50;8.60;50.40;;;;;;4939659;29;8973;-70
2022/02/14 06:43:51;;;;;;;;;146.50;138.00;8.60;50.10;;;;;;4939654;29;8813;-71
2022/02/14 06:46:17;;;;;;;;;158.75;145.00;8.50;50.30;;;;;;4939837;29;8783;-71
2022/02/14 06:48:43;;;;;;;;;157.00;143.00;8.40;50.30;;;;;;4939515;29;8767;-69
2022/02/14 06:51:11;;;;;;;;;144.00;126.50;8.50;50.50;;;;;;4939443;29;8866;-68
2022/02/14 06:53:37;;;;;;;;;161.75;146.50;8.70;50.20;;;;;;4939594;29;8870;-68
2022/02/14 06:56:05;;;;;;;;;142.00;128.75;8.70;49.60;;;;;;4939612;29;8853;-70
2022/02/14 06:58:41;;;;;;;;;133.50;117.50;8.80;49.70;;;;;;4939433;29;9484;-70
2022/02/14 07:01:07;;;;;;;;;164.00;150.75;8.60;50.20;;;;;;4939149;29;8830;-70
2022/02/14 07:03:37;;;;;;;;;189.25;169.50;8.50;50.70;;;;;;4938966;29;8791;-69
2022/02/14 07:06:04;;;;;;;;;169.25;156.50;8.60;51.90;;;;;;4938679;29;8809;-68
2022/02/14 07:08:31;;;;;;;;;176.75;158.50;8.70;50.90;;;;;;4938774;29;8799;-70
2022/02/14 07:10:57;;;;;;;;;168.50;157.25;8.80;50.60;;;;;;4939111;29;8845;-70
2022/02/14 07:13:22;;;;;;;;;147.00;130.50;8.80;50.60;;;;;;4939105;29;8783;-70
2022/02/14 07:15:48;;;;;;;;;131.25;121.25;8.70;50.80;;;;;;4939018;29;8884;-70
2022/02/14 07:18:14;;;;;;;;;160.75;147.00;8.90;51.20;;;;;;4938874;29;8833;-71
2022/02/14 07:20:41;;;;;;;;;154.25;138.00;9.20;50.70;;;;;;4939087;29;8839;-70
2022/02/14 07:23:07;;;;;;;;;159.75;145.50;9.30;50.30;;;;;;4938974;29;8849;-69
2022/02/14 07:25:33;;;;;;;;;160.50;139.50;9.30;50.30;;;;;;4939040;29;8782;-70
2022/02/14 07:27:59;;;;;;;;;142.25;129.25;9.10;50.60;;;;;;4938790;29;8842;-69
2022/02/14 07:30:25;;;;;;;;;158.75;137.00;9.20;50.70;;;;;;4939016;29;8802;-69
2022/02/14 07:32:51;;;;;;;;;163.00;146.00;9.30;50.30;;;;;;4938496;29;8862;-69
2022/02/14 07:35:18;;;;;;;;;143.25;129.25;9.30;50.00;;;;;;4938914;29;8791;-70
2022/02/14 07:37:44;;;;;;;;;146.00;132.50;9.30;50.60;;;;;;4938858;29;8779;-70
2022/02/14 07:40:12;;;;;;;;;145.25;133.00;9.30;50.80;;;;;;4938772;29;8937;-70
2022/02/14 07:42:38;;;;;;;;;145.75;129.00;9.30;50.40;;;;;;4938913;29;8901;-70
2022/02/14 07:45:05;;;;;;;;;133.25;122.00;9.40;51.10;;;;;;4938345;29;8791;-70
2022/02/14 07:47:31;;;;;;;;;151.25;142.00;9.50;50.70;;;;;;4938383;29;8798;-70
2022/02/14 07:49:57;;;;;;;;;144.00;132.00;9.80;49.90;;;;;;4938425;29;8782;-71
2022/02/14 07:52:24;;;;;;;;;111.75;98.50;9.90;49.30;;;;;;4938310;29;8802;-70
2022/02/14 07:54:51;;;;;;;;;121.25;104.00;10.20;49.30;;;;;;4938486;29;9507;-68
2022/02/14 07:57:17;;;;;;;;;168.25;160.00;10.30;48.90;;;;;;4938155;29;8795;-69
2022/02/14 07:59:44;;;;;;;;;107.00;100.50;9.90;49.70;;;;;;4938076;29;8829;-70
2022/02/14 08:02:11;;;;;;;;;121.25;109.50;10.30;49.50;;;;;;4938047;29;8806;-70
2022/02/14 08:04:36;;;;;;;;;109.75;101.25;10.50;49.10;;;;;;4938150;29;9476;-68
2022/02/14 08:07:04;;;;;;;;;106.50;97.25;10.30;50.00;;;;;;4938051;29;8810;-68
2022/02/14 08:09:30;;;;;;;;;95.75;85.25;10.30;50.20;;;;;;4938081;29;8870;-69
2022/02/14 08:11:56;;;;;;;;;101.00;92.50;10.50;50.10;;;;;;4938355;29;8834;-70
2022/02/14 08:14:22;;;;;;;;;99.50;85.75;10.70;49.60;;;;;;4938205;29;8865;-69
2022/02/14 08:16:48;;;;;;;;;96.25;87.75;10.70;49.60;;;;;;4938164;29;8802;-68
2022/02/14 08:19:14;;;;;;;;;99.00;86.50;10.90;49.30;;;;;;4937994;29;9477;-69
2022/02/14 08:21:40;;;;;;;;;92.00;82.75;11.00;49.70;;;;;;4937919;29;8835;-71
2022/02/14 08:24:06;;;;;;;;;94.00;86.50;11.10;48.90;;;;;;4937752;29;8811;-71
2022/02/14 08:26:33;;;;;;;;;89.50;73.75;11.10;49.10;;;;;;4937724;29;8825;-69
2022/02/14 08:29:00;;;;;;;;;96.25;90.75;11.20;48.70;;;;;;4937870;29;8795;-71
2022/02/14 08:31:25;;;;;;;;;95.75;86.50;11.30;48.70;;;;;;4937880;29;8791;-71
2022/02/14 08:33:51;;;;;;;;;101.75;93.50;11.40;48.20;;;;;;4937458;29;8842;-71
2022/02/14 08:36:18;;;;;;;;;100.00;90.75;11.40;49.60;;;;;;4937537;29;8803;-71
2022/02/14 08:38:44;;;;;;;;;105.00;97.25;11.50;48.70;;;;;;4937556;29;8805;-70
2022/02/14 08:41:09;;;;;;;;;109.25;102.25;11.50;48.60;;;;;;4937209;29;8862;-70
2022/02/14 08:43:35;;;;;;;;;121.25;112.50;11.60;48.60;;;;;;4937626;29;9496;-70
2022/02/14 08:46:01;;;;;;;;;128.00;118.00;11.60;48.70;;;;;;4937315;29;9541;-70
2022/02/14 08:48:30;;;;;;;;;129.50;126.25;11.50;49.10;;;;;;4937454;29;8775;-70
2022/02/14 08:50:56;;;;;;;;;134.00;124.00;11.70;48.50;;;;;;4937183;29;8791;-70
2022/02/14 08:53:23;;;;;;;;;121.00;108.00;11.80;47.90;;;;;;4937177;29;8795;-69
2022/02/14 08:55:49;;;;;;;;;149.75;132.25;11.70;47.80;;;;;;4937121;29;8803;-69
2022/02/14 08:58:15;;;;;;;;;132.75;122.00;11.80;47.60;;;;;;4936112;29;8782;-68
2022/02/14 09:00:41;;;;;;;;;139.50;125.50;12.10;47.30;;;;;;4937218;29;8857;-70
2022/02/14 09:03:07;;;;;;;;;147.75;139.50;12.50;46.80;;;;;;4936961;29;8775;-69
2022/02/14 09:05:33;;;;;;;;;128.25;116.00;12.60;46.20;;;;;;4936014;29;8799;-71
2022/02/14 09:07:58;;;;;;;;;119.00;104.00;12.80;45.80;;;;;;4937030;29;8893;-70
2022/02/14 09:10:25;;;;;;;;;119.25;107.75;13.00;45.00;;;;;;4936894;29;8787;-70
2022/02/14 09:12:51;;;;;;;;;120.50;111.25;13.00;45.70;;;;;;4937210;29;8799;-70
2022/02/14 09:15:17;;;;;;;;;135.25;124.50;13.10;44.60;;;;;;4937004;29;8787;-70
2022/02/14 09:17:43;;;;;;;;;130.25;120.25;13.30;44.60;;;;;;4936810;29;8821;-70
2022/02/14 09:20:10;;;;;;;;;121.75;111.75;13.50;44.30;;;;;;4936823;29;8827;-69
2022/02/14 09:22:37;;;;;;;;;105.50;100.25;13.60;44.30;;;;;;4936668;29;8795;-70
2022/02/14 09:25:03;;;;;;;;;98.25;89.50;13.20;45.30;;;;;;4936759;29;8798;-69
2022/02/14 09:27:29;;;;;;;;;85.50;71.75;13.20;45.20;;;;;;4936990;29;8787;-68
2022/02/14 09:29:55;;;;;;;;;96.00;82.25;13.30;45.20;;;;;;4937610;29;8787;-69
2022/02/14 09:32:22;;;;;;;;;96.50;91.25;13.40;45.70;;;;;;4940600;29;8818;-70
2022/02/14 09:34:48;;;;;;;;;88.25;75.00;13.50;45.30;;;;;;4940645;29;8798;-68
2022/02/14 09:37:15;;;;;;;;;94.00;87.00;13.50;45.10;;;;;;4940644;29;8787;-69
2022/02/14 09:39:41;;;;;;;;;89.00;85.00;13.50;45.40;;;;;;4940649;29;8873;-69
2022/02/14 09:42:08;;;;;;;;;83.00;68.75;13.70;45.30;;;;;;4939252;29;9722;-70
2022/02/14 09:44:35;;;;;;;;;90.00;83.75;13.90;44.90;;;;;;4940658;29;8807;-69
2022/02/14 09:47:04;;;;;;;;;101.25;95.50;14.30;44.20;;;;;;4939608;29;8830;-70
2022/02/14 09:49:32;;;;;;;;;113.00;105.00;14.40;43.70;;;;;;4940631;29;8913;-71
2022/02/14 09:51:58;;;;;;;;;128.50;119.75;14.80;42.90;;;;;;4940417;29;8851;-70
2022/02/14 09:54:24;;;;;;;;;142.50;128.00;14.90;41.90;;;;;;4940403;29;8767;-70
2022/02/14 09:56:51;;;;;;;;;123.25;114.25;15.30;41.10;;;;;;4940142;29;8803;-70
2022/02/14 09:59:18;;;;;;;;;116.50;105.75;15.50;41.30;;;;;;4940449;29;8909;-69
2022/02/14 10:01:45;;;;;;;;;119.00;114.00;15.10;40.50;;;;;;4940250;29;8826;-69
2022/02/14 10:04:11;;;;;;;;;113.50;106.50;15.30;40.60;;;;;;4940125;29;8822;-71
2022/02/14 10:06:45;;;;;;;;;101.00;91.50;15.40;40.50;;;;;;4940056;29;8803;-69
2022/02/14 10:09:19;;;;;;;;;116.75;108.75;15.40;40.70;;;;;;4940484;29;8795;-71
2022/02/14 10:12:02;;;;;;;;;98.50;93.75;16.10;39.60;;;;;;4940118;29;8826;-71
2022/02/14 10:14:29;;;;;;;;;98.00;94.00;15.80;39.50;;;;;;4940016;29;8794;-71
2022/02/14 10:17:06;;;;;;;;;101.75;98.25;16.20;39.20;;;;;;4940049;29;8917;-69
2022/02/14 10:19:34;;;;;;;;;105.50;95.00;16.40;38.80;;;;;;4939783;29;8813;-71
2022/02/14 10:22:01;;;;;;;;;122.00;113.75;16.10;40.10;;;;;;4939927;29;8810;-70
2022/02/14 10:24:27;;;;;;;;;113.25;107.25;16.40;39.20;;;;;;4946850;28;8823;-68
2022/02/14 10:26:55;;;;;;;;;104.00;98.25;16.20;39.10;;;;;;4950971;28;8882;-69
2022/02/14 10:29:27;;;;;;;;;98.00;92.00;16.20;39.10;;;;;;4946518;28;8939;-69
2022/02/14 10:32:23;;;;;;;;;102.25;94.75;16.00;38.80;;;;;;4945237;28;8872;-71
2022/02/14 10:34:54;;;;;;;;;86.00;76.75;16.40;38.60;;;;;;4949362;28;8796;-69
2022/02/14 10:37:39;;;;;;;;;87.75;82.75;16.80;37.10;;;;;;4957883;28;8878;-70
2022/02/14 10:40:06;;;;;;;;;82.25;80.25;16.90;36.60;;;;;;4954500;28;8916;-71
2022/02/14 10:42:36;;;;;;;;;82.75;79.00;17.10;36.70;;;;;;4954668;28;8912;-69
2022/02/14 10:45:10;;;;;;;;;93.25;87.00;17.20;36.40;;;;;;4958035;28;8911;-70
2022/02/14 10:47:41;;;;;;;;;85.00;82.00;17.30;35.60;;;;;;4957236;28;8768;-68
2022/02/14 10:50:09;;;;;;;;;95.75;91.75;17.30;35.90;;;;;;4958086;28;8850;-70
2022/02/14 10:52:47;;;;;;;;;89.75;84.00;17.30;35.50;;;;;;4945935;28;8809;-70
2022/02/14 10:55:21;;;;;;;;;104.25;97.50;17.30;35.60;;;;;;4957386;28;9484;-69
2022/02/14 10:57:49;;;;;;;;;104.50;96.50;17.40;35.50;;;;;;4958686;28;8795;-71
2022/02/14 11:00:16;;;;;;;;;116.50;109.75;17.40;35.70;;;;;;4947094;28;8828;-70
2022/02/14 11:02:45;;;;;;;;;115.50;103.75;16.90;36.10;;;;;;4957109;28;8776;-72
2022/02/14 11:05:12;;;;;;;;;122.25;113.00;16.90;36.60;;;;;;4956949;28;8785;-71
2022/02/14 11:07:39;;;;;;;;;122.75;114.25;16.80;36.40;;;;;;4956869;28;8781;-70
2022/02/14 11:10:09;;;;;;;;;117.75;108.75;16.70;36.50;;;;;;4957350;28;8776;-70
2022/02/14 11:12:38;;;;;;;;;117.25;113.25;16.70;36.50;;;;;;4957203;28;8839;-70
2022/02/14 11:15:07;;;;;;;;;126.25;116.25;16.70;36.60;;;;;;4955786;28;9474;-70
2022/02/14 11:17:35;;;;;;;;;117.50;108.00;16.80;36.70;;;;;;4951849;28;8795;-70
2022/02/14 11:20:07;;;;;;;;;112.75;101.50;16.80;36.70;;;;;;4957321;28;8848;-71
2022/02/14 11:22:39;;;;;;;;;92.50;86.75;16.70;36.70;;;;;;4956480;28;8788;-67
2022/02/14 11:25:40;;;;;;;;;111.00;102.50;16.70;37.10;;;;;;4957751;28;8802;-66
2022/02/14 11:28:19;;;;;;;;;104.25;95.25;16.80;37.20;;;;;;4947034;28;8796;-66
2022/02/14 11:30:49;;;;;;;;;96.75;89.75;16.70;37.00;;;;;;4957511;28;8850;-66
2022/02/14 11:33:22;;;;;;;;;101.50;95.50;16.50;37.30;;;;;;4957237;28;8907;-66
2022/02/14 11:36:10;;;;;;;;;91.75;86.00;16.50;37.60;;;;;;4957778;28;8811;-67
2022/02/14 11:38:47;;;;;;;;;93.50;85.50;16.30;38.10;;;;;;4957192;28;8870;-67
2022/02/14 11:41:36;;;;;;;;;83.25;73.50;16.30;38.40;;;;;;4957437;28;8836;-66
2022/02/14 11:44:11;;;;;;;;;76.75;63.75;16.40;37.80;;;;;;4957347;28;8784;-67
2022/02/14 11:46:40;;;;;;;;;80.75;70.50;16.50;37.80;;;;;;4951552;28;9422;-67
2022/02/14 11:49:07;;;;;;;;;84.00;76.00;16.60;37.90;;;;;;4953667;28;8796;-67
2022/02/14 11:51:53;;;;;;;;;112.25;101.25;16.40;38.90;;;;;;4946846;29;8810;-67
2022/02/14 11:54:36;;;;;;;;;108.50;99.75;16.30;39.50;;;;;;4945753;28;8825;-67
2022/02/14 11:57:17;;;;;;;;;106.50;96.25;16.00;39.90;;;;;;4945790;28;8817;-67
2022/02/14 11:59:44;;;;;;;;;105.00;96.50;15.90;40.80;;;;;;4937194;29;8794;-67
2022/02/14 12:02:11;;;;;;;;;89.75;84.00;15.90;41.10;;;;;;4937521;29;8779;-67
2022/02/14 12:04:39;;;;;;;;;86.00;76.25;15.90;41.30;;;;;;4937450;29;8787;-68
2022/02/14 12:07:20;;;;;;;;;89.25;82.50;15.70;42.00;;;;;;4937229;29;8795;-67
2022/02/14 12:09:58;;;;;;;;;93.25;89.75;15.60;42.30;;;;;;4937299;29;8801;-67
2022/02/14 12:12:39;;;;;;;;;92.00;82.25;15.60;42.50;;;;;;4954421;28;8920;-67
2022/02/14 12:20:43;;;;;;;;;95.25;89.50;15.80;42.80;;;;;;4945397;29;8838;-67
2022/02/14 12:23:09;;;;;;;;;92.00;85.50;15.70;42.80;;;;;;4942432;28;8804;-67
2022/02/14 12:25:46;;;;;;;;;109.25;100.50;15.80;42.20;;;;;;4948866;28;8796;-66
2022/02/14 12:28:12;;;;;;;;;96.50;89.75;15.90;42.00;;;;;;4946693;28;8838;-66
2022/02/14 12:30:42;;;;;;;;;85.50;75.50;15.90;41.20;;;;;;4955391;28;8781;-68
2022/02/14 12:33:08;;;;;;;;;82.50;72.50;15.80;41.00;;;;;;4955379;28;9537;-69
2022/02/14 12:35:45;;;;;;;;;82.50;69.75;15.60;40.40;;;;;;4955449;28;8800;-67